Time;durP1;ratioP1;P1;durP2;ratioP2;P2;SDS_P1;SDS_P2;PMS_P1;PMS_P2;Temp;Humidity;BMP_temperature;BMP_pressure;BME280_temperature;BME280_humidity;BME280_pressure;Samples;Min_cycle;Max_cycle;Signal;HPM_P1;HPM_P2
2021/12/14 00:01:02;;;;;;;23.90;15.05;;;;;;;6.93;96.48;102753.34;5035487;28;20025;-75
2021/12/14 00:03:31;;;;;;;23.05;15.27;;;;;;;6.93;96.26;102758.63;5035199;28;20031;-75
2021/12/14 00:05:56;;;;;;;21.75;16.13;;;;;;;6.88;96.44;102766.75;5035169;28;20049;-75
2021/12/14 00:08:25;;;;;;;24.10;15.82;;;;;;;6.85;96.65;102774.81;5034328;28;20481;-75
2021/12/14 00:13:41;;;;;;;24.50;16.52;;;;;;;6.87;96.39;102779.13;5035261;28;20037;-75
2021/12/14 00:16:08;;;;;;;21.42;15.48;;;;;;;6.91;96.28;102774.53;5035782;28;20088;-74
2021/12/14 00:18:34;;;;;;;24.58;16.55;;;;;;;6.91;95.79;102763.09;5017849;28;20111;-74
2021/12/14 00:21:06;;;;;;;24.42;16.90;;;;;;;6.89;96.08;102758.75;5013990;28;20069;-76
2021/12/14 00:26:17;;;;;;;27.75;17.02;;;;;;;6.95;95.55;102776.13;5015764;28;20124;-75
2021/12/14 00:28:45;;;;;;;24.15;16.70;;;;;;;6.98;95.49;102775.16;5015507;28;20042;-75
2021/12/14 00:31:15;;;;;;;28.05;17.17;;;;;;;6.97;95.52;102776.94;5014925;28;20030;-75
2021/12/14 00:33:42;;;;;;;22.50;16.83;;;;;;;6.98;95.53;102777.78;5015159;28;20037;-74
2021/12/14 00:36:11;;;;;;;24.90;17.10;;;;;;;6.94;95.67;102769.16;5015014;28;20121;-75
2021/12/14 00:38:38;;;;;;;23.92;17.00;;;;;;;6.89;96.13;102758.75;5015132;28;20058;-75
2021/12/14 00:41:16;;;;;;;25.25;17.83;;;;;;;6.87;96.62;102765.91;5031144;28;20116;-75
2021/12/14 00:43:42;;;;;;;26.65;17.92;;;;;;;6.85;96.61;102764.22;5015377;28;20030;-77
2021/12/14 00:46:08;;;;;;;27.17;18.80;;;;;;;6.84;96.75;102760.75;5015259;28;20088;-75
2021/12/14 00:48:34;;;;;;;29.80;19.58;;;;;;;6.83;96.82;102752.88;5014467;28;20041;-75
2021/12/14 00:51:03;;;;;;;25.17;18.08;;;;;;;6.82;97.13;102753.78;5015662;28;20041;-75
2021/12/14 00:53:29;;;;;;;26.08;18.92;;;;;;;6.83;96.94;102739.63;5014791;28;20065;-75
2021/12/14 00:55:57;;;;;;;27.65;19.33;;;;;;;6.81;97.41;102739.72;5014709;28;20037;-75
2021/12/14 00:58:23;;;;;;;28.80;20.35;;;;;;;6.78;97.51;102726.63;5014066;28;20038;-75
2021/12/14 01:00:53;;;;;;;29.00;20.23;;;;;;;6.78;97.45;102707.25;5015380;28;20037;-75
2021/12/14 01:03:19;;;;;;;28.05;21.25;;;;;;;6.79;97.40;102719.53;5015375;28;20053;-76
2021/12/14 01:05:48;;;;;;;26.35;19.48;;;;;;;6.82;96.99;102720.28;5014036;28;20431;-75
2021/12/14 01:08:21;;;;;;;28.00;20.30;;;;;;;6.86;97.12;102713.03;5014484;28;20033;-75
2021/12/14 01:10:51;;;;;;;28.15;21.27;;;;;;;6.87;96.95;102714.78;5015331;28;20062;-75
2021/12/14 01:13:22;;;;;;;28.20;20.40;;;;;;;6.88;96.82;102709.41;5015440;28;20049;-76
2021/12/14 01:24:01;;;;;;;31.48;21.85;;;;;;;6.82;97.91;102699.09;5034059;28;20045;-76
2021/12/14 01:26:30;;;;;;;31.25;22.88;;;;;;;6.78;98.14;102697.50;5033870;28;20104;-75
2021/12/14 01:28:56;;;;;;;30.95;22.88;;;;;;;6.80;98.33;102702.72;5034417;28;20116;-75
2021/12/14 01:31:31;;;;;;;36.53;24.13;;;;;;;6.78;98.41;102700.16;5033675;28;20044;-76
2021/12/14 01:34:00;;;;;;;32.40;22.45;;;;;;;6.77;98.47;102708.16;5033730;28;20029;-74
2021/12/14 01:36:36;;;;;;;32.08;23.60;;;;;;;6.74;98.57;102709.16;5033572;28;20040;-74
2021/12/14 01:41:43;;;;;;;34.20;23.80;;;;;;;6.76;98.54;102719.66;5017116;28;20033;-75
2021/12/14 01:44:10;;;;;;;34.35;24.13;;;;;;;6.74;98.56;102711.81;5015467;28;20421;-75
2021/12/14 01:46:41;;;;;;;36.08;24.38;;;;;;;6.74;98.73;102703.00;5033190;28;20033;-74
2021/12/14 01:49:09;;;;;;;35.58;23.55;;;;;;;6.74;98.70;102708.31;5033328;28;20034;-73
2021/12/14 01:51:39;;;;;;;32.05;22.38;;;;;;;6.75;98.25;102716.19;5015879;28;20109;-75
2021/12/14 01:54:06;;;;;;;33.85;24.10;;;;;;;6.74;98.53;102708.31;5032745;28;20350;-75
2021/12/14 01:56:32;;;;;;;33.38;23.13;;;;;;;6.76;98.42;102717.88;5033084;28;20095;-74
2021/12/14 01:59:10;;;;;;;35.17;24.33;;;;;;;6.75;98.21;102725.88;5033593;28;20033;-75
2021/12/14 02:01:45;;;;;;;36.20;24.58;;;;;;;6.70;98.56;102736.66;5032575;28;20025;-74
2021/12/14 02:04:19;;;;;;;33.83;23.65;;;;;;;6.71;98.88;102709.28;5033396;28;20049;-74
2021/12/14 02:06:54;;;;;;;33.60;23.98;;;;;;;6.67;99.02;102719.16;5033033;28;20080;-73
2021/12/14 02:09:19;;;;;;;34.35;24.38;;;;;;;6.69;99.11;102713.81;5032804;28;20034;-74
2021/12/14 02:11:51;;;;;;;34.88;23.33;;;;;;;6.69;98.68;102719.94;5033147;28;20107;-74
2021/12/14 02:14:17;;;;;;;;;;;;;;;6.68;98.91;102726.16;5033842;28;20036;-74
2021/12/14 02:16:47;;;;;;;31.80;23.05;;;;;;;6.66;98.90;102721.88;5015466;28;20364;-73
2021/12/14 02:19:15;;;;;;;35.35;24.92;;;;;;;6.66;99.12;102713.94;5032851;28;20075;-74
2021/12/14 02:21:44;;;;;;;35.00;25.10;;;;;;;6.68;98.92;102720.84;5033197;28;20065;-73
2021/12/14 02:24:11;;;;;;;33.42;24.65;;;;;;;6.68;98.76;102718.22;5032976;28;20198;-73
2021/12/14 02:26:40;;;;;;;34.22;25.05;;;;;;;6.66;98.97;102720.09;5033567;28;20033;-73
2021/12/14 02:29:09;;;;;;;36.05;23.10;;;;;;;6.67;98.92;102720.94;5033347;28;20428;-73
2021/12/14 02:31:39;;;;;;;32.97;23.42;;;;;;;6.69;98.86;102719.09;5032460;28;20462;-74
2021/12/14 02:34:06;;;;;;;35.42;24.35;;;;;;;6.67;98.79;102711.22;5032811;28;20029;-74
2021/12/14 02:36:36;;;;;;;35.03;23.75;;;;;;;6.66;98.99;102714.78;5032735;28;20120;-74
2021/12/14 02:39:12;;;;;;;35.83;23.90;;;;;;;6.66;99.05;102700.72;5033230;28;20030;-74
2021/12/14 02:41:50;;;;;;;34.88;23.85;;;;;;;6.64;98.87;102711.38;5033169;28;20066;-74
2021/12/14 02:44:17;;;;;;;35.08;23.70;;;;;;;6.63;99.14;102711.44;5032087;28;20315;-75
2021/12/14 02:46:48;;;;;;;37.15;22.85;;;;;;;6.62;99.22;102697.31;5032601;28;20388;-74
2021/12/14 02:49:17;;;;;;;32.63;23.15;;;;;;;6.60;99.39;102693.03;5032701;28;20039;-74
2021/12/14 02:51:49;;;;;;;36.08;24.05;;;;;;;6.57;99.50;102688.75;5032782;28;20105;-74
2021/12/14 02:54:27;;;;;;;32.95;22.38;;;;;;;6.57;99.52;102690.50;5032475;28;20038;-74
2021/12/14 02:57:00;;;;;;;36.58;23.67;;;;;;;6.59;99.39;102686.88;5033309;28;20029;-74
2021/12/14 02:59:30;;;;;;;34.13;23.35;;;;;;;6.60;99.26;102685.97;5032976;28;20038;-74
2021/12/14 03:01:58;;;;;;;30.23;22.95;;;;;;;6.60;99.31;102688.63;5032167;28;20032;-74
2021/12/14 03:04:24;;;;;;;30.65;22.58;;;;;;;6.60;99.34;102693.91;5032696;28;20029;-74
2021/12/14 03:06:56;;;;;;;35.30;22.88;;;;;;;6.57;99.44;102704.63;5032332;28;20084;-74
2021/12/14 03:09:57;;;;;;;33.95;23.33;;;;;;;6.55;99.69;102703.81;5033111;28;20037;-75
2021/12/14 03:12:31;;;;;;;34.33;23.45;;;;;;;6.56;99.54;102702.91;5016591;28;20436;-74
2021/12/14 03:15:19;;;;;;;33.53;23.10;;;;;;;6.59;99.48;102705.41;5036541;28;20104;-74
2021/12/14 03:17:48;;;;;;;33.42;22.58;;;;;;;6.62;99.30;102715.84;5035923;28;20116;-75
2021/12/14 03:20:22;;;;;;;31.85;22.15;;;;;;;6.62;99.04;102715.84;5035899;28;20080;-74
2021/12/14 03:22:55;;;;;;;31.95;23.02;;;;;;;6.63;98.94;102712.28;5035852;28;20025;-75
2021/12/14 03:25:21;;;;;;;33.97;22.67;;;;;;;6.62;98.83;102701.78;5035931;28;20056;-74
2021/12/14 03:27:49;;;;;;;31.35;22.70;;;;;;;6.58;99.10;102711.59;5036379;28;20076;-74
2021/12/14 03:30:27;;;;;;;34.78;22.73;;;;;;;6.59;99.24;102710.69;5036200;28;20103;-74
2021/12/14 03:32:57;;;;;;;33.13;22.77;;;;;;;6.58;99.16;102714.25;5035555;28;20494;-74
2021/12/14 03:35:36;;;;;;;33.38;22.15;;;;;;;6.59;99.27;102708.03;5035615;28;20037;-75
2021/12/14 03:38:15;;;;;;;31.73;22.38;;;;;;;6.59;99.09;102712.50;5036332;28;20025;-74
2021/12/14 03:40:41;;;;;;;32.05;22.90;;;;;;;6.57;99.12;102712.56;5035951;28;20036;-74
2021/12/14 03:43:07;;;;;;;31.35;21.17;;;;;;;6.57;99.15;102723.13;5035590;28;20386;-74
2021/12/14 03:45:33;;;;;;;32.97;23.05;;;;;;;6.54;99.20;102717.97;5036338;28;20048;-75
2021/12/14 03:48:01;;;;;;;35.58;23.05;;;;;;;6.52;99.33;102722.47;5036015;28;20037;-74
2021/12/14 03:50:32;;;;;;;34.35;22.67;;;;;;;6.52;99.28;102719.81;5035529;28;20044;-74
2021/12/14 03:52:57;;;;;;;34.83;23.20;;;;;;;6.53;99.55;102718.91;5035516;28;20032;-74
2021/12/14 03:55:31;;;;;;;31.15;22.27;;;;;;;6.51;99.59;102720.75;5036248;28;20025;-75
2021/12/14 03:57:56;;;;;;;33.95;22.65;;;;;;;6.48;99.77;102719.09;5035837;28;20056;-75
2021/12/14 04:00:29;;;;;;;31.80;21.52;;;;;;;6.48;99.82;102712.97;5035273;28;20037;-74
2021/12/14 04:02:58;;;;;;;31.50;21.50;;;;;;;6.48;99.70;102705.03;5035594;28;20083;-75
2021/12/14 04:05:24;;;;;;;32.55;21.63;;;;;;;6.52;99.54;102707.47;5036008;28;20064;-75
2021/12/14 04:07:50;;;;;;;32.63;20.73;;;;;;;6.56;99.12;102712.63;5035615;28;20603;-75
2021/12/14 04:10:25;;;;;;;32.15;21.02;;;;;;;6.55;98.98;102714.38;5035215;28;20057;-75
2021/12/14 04:12:52;;;;;;;33.63;21.27;;;;;;;6.58;99.07;102724.84;5035647;28;20040;-75
2021/12/14 04:15:18;;;;;;;30.30;21.15;;;;;;;6.61;98.73;102723.84;5035124;28;20037;-74
2021/12/14 04:17:44;;;;;;;28.73;20.35;;;;;;;6.62;98.63;102721.13;5034856;28;20029;-74
2021/12/14 04:20:15;;;;;;;31.73;21.13;;;;;;;6.63;98.60;102728.16;5034999;28;20053;-74
2021/12/14 04:22:46;;;;;;;30.25;21.10;;;;;;;6.62;98.46;102723.78;5017065;28;20393;-76
2021/12/14 04:25:13;;;;;;;29.38;20.15;;;;;;;6.60;98.44;102717.72;5034360;28;20116;-74
2021/12/14 04:27:38;;;;;;;33.80;20.42;;;;;;;6.58;98.61;102723.97;5034748;28;20099;-74
2021/12/14 04:30:10;;;;;;;33.05;20.90;;;;;;;6.57;98.63;102723.13;5034559;28;20436;-74
2021/12/14 04:32:37;;;;;;;32.83;21.15;;;;;;;6.55;98.90;102724.13;5035056;28;20107;-74
2021/12/14 04:35:06;;;;;;;29.95;21.67;;;;;;;6.51;99.19;102721.59;5034287;28;20029;-74
2021/12/14 04:37:36;;;;;;;29.05;20.55;;;;;;;6.51;99.10;102718.13;5034228;28;20435;-74
2021/12/14 04:40:19;;;;;;;30.23;20.52;;;;;;;6.51;99.16;102715.47;5034694;28;20056;-74
2021/12/14 04:53:50;;;;;;;27.67;18.92;;;;;;;6.51;98.89;102696.97;5034861;28;20044;-79
2021/12/14 04:56:26;;;;;;;29.17;20.20;;;;;;;6.50;98.71;102696.06;5034470;28;20163;-75
2021/12/14 04:58:59;;;;;;;29.75;19.55;;;;;;;6.51;98.56;102699.59;5034369;28;20108;-75
2021/12/14 05:01:25;;;;;;;27.73;19.80;;;;;;;6.47;98.60;102696.22;5034211;28;20026;-74
2021/12/14 05:03:57;;;;;;;27.52;19.20;;;;;;;6.47;99.01;102701.50;5034329;28;20447;-74
2021/12/14 05:06:26;;;;;;;29.63;19.77;;;;;;;6.48;98.78;102692.66;5034648;28;20033;-73
2021/12/14 05:09:24;;;;;;;25.98;18.45;;;;;;;6.47;98.76;102685.63;5033936;28;20033;-74
2021/12/14 05:12:12;;;;;;;27.77;18.27;;;;;;;6.48;98.67;102697.94;5033976;28;20108;-74
2021/12/14 05:14:39;;;;;;;26.83;18.63;;;;;;;6.51;98.71;102692.53;5034274;28;20044;-74
2021/12/14 05:17:14;;;;;;;34.80;19.60;;;;;;;6.52;98.05;102690.72;5033392;28;20029;-73
2021/12/14 05:19:43;;;;;;;25.00;18.83;;;;;;;6.54;97.87;102694.19;5033119;28;20033;-74
2021/12/14 05:22:11;;;;;;;29.73;18.92;;;;;;;6.53;98.05;102679.22;5034279;28;20450;-74
2021/12/14 05:24:39;;;;;;;30.88;18.70;;;;;;;6.55;98.10;102687.09;5033732;28;20025;-74
2021/12/14 05:27:07;;;;;;;28.55;18.42;;;;;;;6.54;98.02;102688.88;5033748;28;20033;-74
2021/12/14 05:29:34;;;;;;;27.67;18.55;;;;;;;6.54;97.87;102694.19;5033556;28;20469;-75
2021/12/14 05:32:01;;;;;;;28.25;18.40;;;;;;;6.52;97.88;102688.97;5033512;28;20051;-74
2021/12/14 05:34:28;;;;;;;26.98;18.08;;;;;;;6.51;97.69;102684.59;5016301;28;20030;-74
2021/12/14 05:36:55;;;;;;;25.30;17.90;;;;;;;6.50;97.52;102689.94;5033805;28;20044;-74
2021/12/14 05:39:47;;;;;;;32.85;19.05;;;;;;;6.49;97.74;102689.09;5033386;28;20116;-74
2021/12/14 05:45:04;;;;;;;29.70;18.48;;;;;;;6.43;98.63;102702.56;5033730;28;20086;-75
2021/12/14 05:47:30;;;;;;;31.17;18.45;;;;;;;6.43;98.79;102699.06;5033699;28;20452;-74
2021/12/14 05:49:55;;;;;;;28.88;19.00;;;;;;;6.46;98.95;102707.72;5033116;28;20167;-75
2021/12/14 05:52:26;;;;;;;32.60;20.25;;;;;;;6.46;98.80;102702.41;5032761;28;20390;-75
2021/12/14 05:54:54;;;;;;;29.38;18.55;;;;;;;6.44;99.05;102709.56;5033543;28;20061;-80
2021/12/14 05:57:23;;;;;;;30.20;18.70;;;;;;;6.46;99.03;102714.78;5033628;28;20035;-75
2021/12/14 05:59:49;;;;;;;32.25;18.52;;;;;;;6.48;98.95;102721.75;5033253;28;20033;-74
2021/12/14 06:02:15;;;;;;;30.25;18.77;;;;;;;6.50;98.74;102719.88;5033180;28;20080;-74
2021/12/14 06:04:45;;;;;;;27.73;18.00;;;;;;;6.53;98.48;102719.75;5033280;28;20029;-74
2021/12/14 06:07:12;;;;;;;28.83;18.65;;;;;;;6.51;98.50;102713.69;5033654;28;20036;-74
2021/12/14 06:09:40;;;;;;;33.35;18.88;;;;;;;6.51;98.61;102718.13;5032960;28;20033;-74
2021/12/14 06:12:11;;;;;;;38.38;19.63;;;;;;;6.49;98.98;102712.00;5032951;28;20036;-74
2021/12/14 06:14:42;;;;;;;;;;;;;;;6.52;98.96;102719.81;5016557;28;20361;-74
2021/12/14 06:17:11;;;;;;;28.98;18.45;;;;;;;6.48;98.97;102712.97;5033357;28;20372;-76
2021/12/14 06:19:40;;;;;;;36.47;20.38;;;;;;;6.46;99.22;102712.16;5032852;28;20022;-74
2021/12/14 06:22:15;;;;;;;33.85;19.20;;;;;;;6.49;99.32;102722.59;5032860;28;20087;-75
2021/12/14 06:24:43;;;;;;;33.10;18.98;;;;;;;6.51;99.15;102718.13;5036036;28;20120;-75
2021/12/14 06:27:12;;;;;;;33.78;20.13;;;;;;;6.51;99.22;102723.41;5032957;28;20068;-77
2021/12/14 06:29:45;;;;;;;27.98;18.95;;;;;;;6.56;99.04;102725.84;5032711;28;20025;-75
2021/12/14 06:32:40;;;;;;;31.17;19.90;;;;;;;6.57;98.93;102733.72;5033100;28;20033;-78
2021/12/14 06:35:17;;;;;;;33.90;18.58;;;;;;;6.59;98.80;102739.78;5032652;28;20037;-75
2021/12/14 06:38:21;;;;;;;34.40;19.80;;;;;;;6.58;98.74;102730.13;5033422;28;20032;-77
2021/12/14 06:41:01;;;;;;;36.00;19.95;;;;;;;6.55;99.10;102730.25;5032841;28;20079;-77
2021/12/14 06:43:40;;;;;;;34.53;19.75;;;;;;;6.53;99.11;102732.13;5032953;28;20109;-78
2021/12/14 06:46:15;;;;;;;34.28;20.48;;;;;;;6.54;99.42;102736.50;5032411;28;20033;-75
2021/12/14 06:48:53;;;;;;;30.92;19.50;;;;;;;6.56;99.41;102741.72;5035997;28;20057;-75
2021/12/14 06:51:32;;;;;;;31.20;19.63;;;;;;;6.60;99.35;102748.56;5036802;28;20036;-74
2021/12/14 06:54:01;;;;;;;32.28;19.88;;;;;;;6.62;99.26;102749.38;5036931;28;20112;-74
2021/12/14 06:56:29;;;;;;;33.70;19.80;;;;;;;6.63;99.13;102749.31;5036339;28;20026;-76
2021/12/14 06:59:09;;;;;;;35.97;20.52;;;;;;;6.65;99.10;102749.25;5035854;28;20057;-75
2021/12/14 07:01:39;;;;;;;31.55;20.10;;;;;;;6.64;99.01;102747.53;5036330;28;20548;-76
2021/12/14 07:04:07;;;;;;;33.00;19.85;;;;;;;6.62;99.22;102742.28;5036068;28;20025;-74
2021/12/14 07:06:36;;;;;;;36.72;20.83;;;;;;;6.59;99.49;102755.66;5036625;28;20030;-75
2021/12/14 07:09:10;;;;;;;37.38;20.33;;;;;;;6.58;99.61;102751.28;5036183;28;20030;-77
2021/12/14 07:11:37;;;;;;;41.65;20.95;;;;;;;6.59;99.69;102753.00;5036314;28;20045;-77
2021/12/14 07:14:15;;;;;;;33.10;20.17;;;;;;;6.58;100.00;102753.94;5018893;28;20076;-77
2021/12/14 07:16:46;;;;;;;35.33;19.67;;;;;;;6.59;99.93;102750.38;5035641;28;20393;-78
2021/12/14 07:19:11;;;;;;;33.90;20.75;;;;;;;6.60;99.93;102753.84;5035972;28;20026;-76
2021/12/14 07:21:48;;;;;;;39.40;20.73;;;;;;;6.64;100.00;102758.97;5036190;28;20111;-76
2021/12/14 07:24:23;;;;;;;33.72;20.80;;;;;;;6.69;99.90;102750.84;5035563;28;20033;-75
2021/12/14 07:27:14;;;;;;;34.38;20.40;;;;;;;6.73;99.85;102759.50;5036017;28;20133;-75
2021/12/14 07:29:39;;;;;;;30.70;19.52;;;;;;;6.75;99.87;102762.91;5036369;28;20025;-75
2021/12/14 07:32:05;;;;;;;39.72;22.33;;;;;;;6.73;100.00;102768.28;5034654;28;20532;-75
2021/12/14 07:34:31;;;;;;;37.65;20.48;;;;;;;6.75;100.00;102773.50;5035879;28;20437;-74
2021/12/14 07:36:56;;;;;;;37.17;20.60;;;;;;;6.82;99.97;102773.19;5035405;28;20116;-76
2021/12/14 07:39:22;;;;;;;38.03;21.15;;;;;;;6.86;99.96;102776.53;5035625;28;20025;-75
2021/12/14 07:41:51;;;;;;;39.35;21.35;;;;;;;6.86;99.85;102776.53;5036328;28;20446;-76
2021/12/14 07:44:25;;;;;;;40.50;22.17;;;;;;;6.83;100.00;102780.19;5034306;28;20022;-75
2021/12/14 07:47:14;;;;;;;42.60;21.60;;;;;;;6.80;100.00;102784.75;5035731;28;20045;-75
2021/12/14 07:49:44;;;;;;;42.25;22.58;;;;;;;6.78;100.00;102782.19;5035703;28;20025;-75
2021/12/14 07:52:15;;;;;;;39.97;20.65;;;;;;;6.77;100.00;102783.09;5034998;28;20056;-76
2021/12/14 07:54:45;;;;;;;43.10;23.15;;;;;;;6.77;100.00;102788.38;5035869;28;20099;-75
2021/12/14 07:57:14;;;;;;;46.05;22.98;;;;;;;6.79;100.00;102797.13;5035866;28;20029;-76
2021/12/14 07:59:51;;;;;;;45.92;22.67;;;;;;;6.78;100.00;102790.13;5034334;28;20224;-76
2021/12/14 08:02:23;;;;;;;46.53;23.95;;;;;;;6.79;100.00;102790.97;5035536;28;20030;-75
2021/12/14 08:05:03;;;;;;;49.22;23.38;;;;;;;6.75;100.00;102795.53;5035216;28;20037;-75
2021/12/14 08:07:38;;;;;;;50.40;24.58;;;;;;;6.75;100.00;102792.03;5035117;28;20065;-76
2021/12/14 08:10:27;;;;;;;58.80;25.00;;;;;;;6.78;100.00;102797.22;5035016;28;20107;-75
2021/12/14 08:13:06;;;;;;;53.22;26.00;;;;;;;6.78;100.00;102803.34;5035373;28;20115;-75
2021/12/14 08:15:42;;;;;;;54.65;25.70;;;;;;;6.79;100.00;102801.56;5035176;28;20037;-75
2021/12/14 08:18:17;;;;;;;56.28;26.58;;;;;;;6.78;100.00;102799.84;5016825;28;20385;-74
2021/12/14 08:21:03;;;;;;;54.13;26.83;;;;;;;6.79;100.00;102806.84;5035287;28;20045;-75
2021/12/14 08:24:04;;;;;;;51.20;26.48;;;;;;;6.80;100.00;102808.56;5034751;28;20025;-75
2021/12/14 08:26:36;;;;;;;58.90;27.10;;;;;;;6.79;100.00;102807.72;5035264;28;20037;-76
2021/12/14 08:29:11;;;;;;;57.97;26.88;;;;;;;6.80;100.00;102817.34;5034360;28;20094;-75
2021/12/14 08:31:43;;;;;;;58.03;28.08;;;;;;;6.82;100.00;102818.16;5034362;28;20532;-75
2021/12/14 08:34:12;;;;;;;49.72;26.00;;;;;;;6.87;100.00;102824.13;5034621;28;20116;-76
2021/12/14 08:36:41;;;;;;;50.97;25.48;;;;;;;6.89;100.00;102824.91;5034550;28;20025;-76
2021/12/14 08:39:38;;;;;;;63.28;28.58;;;;;;;6.88;100.00;102822.31;5034185;28;20366;-76
2021/12/14 08:42:15;;;;;;;60.00;26.92;;;;;;;6.86;100.00;102825.03;5034381;28;20420;-75
2021/12/14 08:44:50;;;;;;;60.85;28.13;;;;;;;6.88;100.00;102827.59;5034676;28;20029;-76
2021/12/14 08:47:29;;;;;;;56.58;28.15;;;;;;;6.90;100.00;102831.06;5034249;28;20029;-76
2021/12/14 08:49:56;;;;;;;63.83;29.05;;;;;;;6.91;100.00;102831.91;5033291;28;20033;-75
2021/12/14 08:52:23;;;;;;;55.72;27.05;;;;;;;6.93;100.00;102836.22;5034396;28;20224;-75
2021/12/14 08:54:50;;;;;;;56.22;27.65;;;;;;;6.97;100.00;102836.94;5034164;28;20045;-75
2021/12/14 08:57:20;;;;;;;51.20;26.83;;;;;;;6.99;100.00;102835.97;5016125;28;20040;-76
2021/12/14 08:59:49;;;;;;;48.30;25.55;;;;;;;7.01;100.00;102835.88;5034408;28;20029;-75
2021/12/14 09:02:16;;;;;;;48.38;25.77;;;;;;;7.03;100.00;102834.03;5034586;28;20224;-74
2021/12/14 09:04:48;;;;;;;58.63;27.63;;;;;;;7.04;100.00;102827.81;5033637;28;20025;-77
2021/12/14 09:07:17;;;;;;;50.42;25.38;;;;;;;7.07;100.00;102825.03;5033700;28;20022;-77
2021/12/14 09:09:44;;;;;;;49.47;26.45;;;;;;;7.08;100.00;102824.09;5033108;28;20113;-77
2021/12/14 09:12:24;;;;;;;53.45;25.60;;;;;;;7.09;100.00;102825.84;5033511;28;20493;-78
2021/12/14 09:14:51;;;;;;;52.90;25.08;;;;;;;7.10;100.00;102818.75;5034051;28;20440;-75
2021/12/14 09:17:22;;;;;;;58.00;26.65;;;;;;;7.10;100.00;102821.41;5033564;28;20033;-73
2021/12/14 09:20:00;;;;;;;62.60;27.92;;;;;;;7.11;100.00;102823.13;5033891;28;20049;-73
2021/12/14 09:22:30;;;;;;;53.85;26.55;;;;;;;7.11;100.00;102823.13;5033338;28;20041;-75
2021/12/14 09:24:57;;;;;;;63.33;27.97;;;;;;;7.14;100.00;102830.94;5033668;28;20091;-76
2021/12/14 09:27:26;;;;;;;50.88;25.77;;;;;;;7.19;100.00;102831.56;5033301;28;20029;-76
2021/12/14 09:29:53;;;;;;;50.70;25.90;;;;;;;7.25;100.00;102831.28;5033542;28;20057;-75
2021/12/14 09:32:25;;;;;;;53.83;26.05;;;;;;;7.28;100.00;102840.91;5033313;28;20043;-79
2021/12/14 09:34:51;;;;;;;49.90;26.05;;;;;;;7.31;100.00;102836.31;5033321;28;20029;-76
2021/12/14 09:37:19;;;;;;;54.35;25.85;;;;;;;7.34;100.00;102837.97;5032708;28;20034;-77
2021/12/14 09:39:48;;;;;;;47.22;25.38;;;;;;;7.39;100.00;102834.19;5032974;28;20029;-77
2021/12/14 09:42:19;;;;;;;42.55;24.55;;;;;;;7.46;100.00;102848.00;5014903;28;20048;-75
2021/12/14 09:44:47;;;;;;;54.83;23.52;;;;;;;7.47;100.00;102839.13;5033182;28;20021;-76
2021/12/14 09:47:17;;;;;;;45.45;23.58;;;;;;;7.51;100.00;102839.84;5032540;28;20025;-76
2021/12/14 09:49:46;;;;;;;44.25;23.77;;;;;;;7.53;100.00;102838.84;5032485;28;20033;-76
2021/12/14 09:52:20;;;;;;;40.55;22.73;;;;;;;7.60;100.00;102844.75;5032568;28;20067;-77
2021/12/14 09:54:46;;;;;;;40.15;21.77;;;;;;;7.65;100.00;102840.06;5033228;28;20021;-76
2021/12/14 09:57:33;;;;;;;37.80;21.98;;;;;;;7.66;100.00;102836.50;5032295;28;20042;-77
2021/12/14 10:00:04;;;;;;;41.83;21.95;;;;;;;7.72;100.00;102835.38;5033137;28;20061;-75
2021/12/14 10:02:38;;;;;;;37.65;21.48;;;;;;;7.77;100.00;102836.00;5032130;28;20040;-75
2021/12/14 10:05:14;;;;;;;46.83;22.13;;;;;;;7.75;100.00;102825.47;5035000;28;20026;-75
2021/12/14 10:07:39;;;;;;;43.30;20.70;;;;;;;7.81;100.00;102834.03;5032799;28;20030;-76
2021/12/14 10:10:10;;;;;;;38.47;21.42;;;;;;;7.83;100.00;102830.41;5031179;28;20117;-76
2021/12/14 10:12:50;;;;;;;33.78;20.95;;;;;;;7.81;100.00;102834.94;5014982;28;20029;-76
2021/12/14 10:15:27;;;;;;;37.88;21.88;;;;;;;7.79;100.00;102839.41;5033250;28;20026;-74
2021/12/14 10:17:56;;;;;;;43.35;21.23;;;;;;;7.74;100.00;102836.13;5032518;28;20492;-75
2021/12/14 10:20:29;;;;;;;40.17;21.30;;;;;;;7.71;100.00;102834.47;5032478;28;20048;-75
2021/12/14 10:22:55;;;;;;;50.05;22.50;;;;;;;7.67;100.00;102832.06;5035385;28;20030;-74
2021/12/14 10:25:23;;;;;;;45.80;22.88;;;;;;;7.61;100.00;102842.94;5036947;28;20087;-74
2021/12/14 10:27:49;;;;;;;40.10;22.45;;;;;;;7.59;100.00;102845.66;5036524;28;20037;-74
2021/12/14 10:30:25;;;;;;;44.25;23.92;;;;;;;7.53;100.00;102846.78;5036743;28;20037;-77
2021/12/14 10:32:50;;;;;;;46.67;23.38;;;;;;;7.50;100.00;102844.28;5037020;28;20025;-77
2021/12/14 10:35:22;;;;;;;46.33;23.30;;;;;;;7.47;100.00;102841.78;5036258;28;20033;-77
2021/12/14 10:37:58;;;;;;;40.33;22.23;;;;;;;7.45;100.00;102838.34;5036245;28;20033;-77
2021/12/14 10:43:15;;;;;;;44.97;23.77;;;;;;;7.43;100.00;102845.50;5035903;28;20132;-77
2021/12/14 10:45:52;;;;;;;49.10;23.73;;;;;;;7.45;100.00;102833.06;5036449;28;20038;-76
2021/12/14 10:48:20;;;;;;;42.88;22.38;;;;;;;7.48;100.00;102835.56;5036339;28;20524;-74
2021/12/14 10:50:48;;;;;;;41.60;22.58;;;;;;;7.52;100.00;102838.91;5036056;28;20108;-75
2021/12/14 10:53:17;;;;;;;41.35;22.30;;;;;;;7.53;100.00;102838.84;5017892;28;20025;-75
2021/12/14 10:55:58;;;;;;;43.80;21.88;;;;;;;7.52;100.00;102838.91;5035895;28;20068;-75
2021/12/14 10:58:26;;;;;;;40.75;21.80;;;;;;;7.54;100.00;102839.72;5036095;28;20025;-75
2021/12/14 11:00:59;;;;;;;39.80;21.83;;;;;;;7.57;100.00;102826.34;5035703;28;20029;-75
2021/12/14 11:03:33;;;;;;;45.42;22.02;;;;;;;7.62;100.00;102828.78;5036028;28;20109;-74
2021/12/14 11:06:02;;;;;;;41.80;20.95;;;;;;;7.63;100.00;102828.69;5035799;28;20434;-75
2021/12/14 11:11:53;;;;;;;37.05;18.48;;;;;;;7.73;100.00;102831.75;5030110;28;20470;-76
2021/12/14 11:14:24;;;;;;;32.22;17.90;;;;;;;7.74;100.00;102826.38;5034273;28;20535;-76
2021/12/14 11:19:38;;;;;;;33.30;15.82;;;;;;;7.77;100.00;102828.03;5035372;28;20366;-75
2021/12/14 11:22:20;;;;;;;29.00;15.75;;;;;;;7.77;100.00;102825.41;5036008;28;20129;-75
2021/12/14 11:24:52;;;;;;;33.40;15.27;;;;;;;7.80;100.00;102827.06;5035574;28;20091;-75
2021/12/14 11:27:23;;;;;;;28.52;15.15;;;;;;;7.79;100.00;102826.16;5035953;28;20361;-74
2021/12/14 11:29:55;;;;;;;29.40;15.90;;;;;;;7.83;100.00;102825.09;5035473;28;20415;-74
2021/12/14 11:32:24;;;;;;;31.25;16.13;;;;;;;7.82;100.00;102828.66;5035380;28;20044;-76
2021/12/14 11:34:50;;;;;;;27.95;15.52;;;;;;;7.85;100.00;102822.38;5034695;28;20442;-75
2021/12/14 11:37:21;;;;;;;25.73;15.20;;;;;;;7.85;100.00;102825.03;5035000;28;20033;-80
2021/12/14 11:39:50;;;;;;;28.42;14.57;;;;;;;7.83;100.00;102822.44;5035069;28;20061;-77
2021/12/14 11:42:18;;;;;;;28.52;15.57;;;;;;;7.83;100.00;102816.31;5035067;28;20029;-77
2021/12/14 11:44:50;;;;;;;32.30;14.13;;;;;;;7.84;100.00;102823.31;5035373;28;20067;-76
2021/12/14 11:50:21;;;;;;;25.45;14.63;;;;;;;7.88;100.00;102820.47;5035430;28;20457;-75
2021/12/14 11:53:11;;;;;;;29.02;13.88;;;;;;;7.84;100.00;102821.53;5035272;28;20508;-77
2021/12/14 11:55:49;;;;;;;36.53;14.50;;;;;;;7.87;100.00;102821.38;5034854;28;20032;-76
2021/12/14 11:58:30;;;;;;;31.75;13.70;;;;;;;7.86;100.00;102821.44;5017508;28;20060;-77
2021/12/14 12:00:56;;;;;;;31.20;13.23;;;;;;;7.87;100.00;102817.88;5035326;28;20134;-76
2021/12/14 12:03:34;;;;;;;35.08;13.65;;;;;;;7.85;100.00;102817.06;5034741;28;20116;-77
2021/12/14 12:12:17;;;;;;;30.98;14.20;;;;;;;7.85;100.00;102817.06;5034888;28;20043;-77
2021/12/14 12:15:03;;;;;;;26.33;13.63;;;;;;;7.91;100.00;102811.47;5021283;28;20037;-77
2021/12/14 12:17:40;;;;;;;22.60;12.32;;;;;;;7.93;100.00;102815.78;5035207;28;20065;-76
2021/12/14 12:20:14;;;;;;;23.42;11.88;;;;;;;7.94;100.00;102813.97;5034267;28;20061;-76
2021/12/14 12:23:06;;;;;;;27.90;12.38;;;;;;;7.91;100.00;102806.19;5034817;28;20041;-74